sensor_id;sensor_type;location;lat;lon;timestamp;P1;durP1;ratioP1;P2;durP2;ratioP2
30370;SDS011;17164;48.590;11.410;2023-05-29T00:00:28;8.00;;;4.37;;
30370;SDS011;17164;48.590;11.410;2023-05-29T00:02:54;11.07;;;4.50;;
30370;SDS011;17164;48.590;11.410;2023-05-29T00:05:19;10.20;;;4.80;;
30370;SDS011;17164;48.590;11.410;2023-05-29T00:07:45;10.30;;;4.83;;
30370;SDS011;17164;48.590;11.410;2023-05-29T00:10:11;7.07;;;4.27;;
30370;SDS011;17164;48.590;11.410;2023-05-29T00:12:37;7.63;;;4.40;;
30370;SDS011;17164;48.590;11.410;2023-05-29T00:15:04;11.37;;;4.80;;
30370;SDS011;17164;48.590;11.410;2023-05-29T00:17:30;8.13;;;4.37;;
30370;SDS011;17164;48.590;11.410;2023-05-29T00:20:01;8.00;;;3.90;;
30370;SDS011;17164;48.590;11.410;2023-05-29T00:22:34;8.37;;;4.23;;
30370;SDS011;17164;48.590;11.410;2023-05-29T00:25:02;7.27;;;4.10;;
30370;SDS011;17164;48.590;11.410;2023-05-29T00:27:31;8.67;;;4.50;;
30370;SDS011;17164;48.590;11.410;2023-05-29T00:29:58;7.03;;;4.37;;
30370;SDS011;17164;48.590;11.410;2023-05-29T00:32:24;7.33;;;4.30;;
30370;SDS011;17164;48.590;11.410;2023-05-29T00:34:50;7.87;;;4.57;;
30370;SDS011;17164;48.590;11.410;2023-05-29T00:37:16;7.83;;;4.40;;
30370;SDS011;17164;48.590;11.410;2023-05-29T00:39:42;7.50;;;4.10;;
30370;SDS011;17164;48.590;11.410;2023-05-29T00:42:08;6.60;;;3.97;;
30370;SDS011;17164;48.590;11.410;2023-05-29T00:44:33;9.43;;;4.60;;
30370;SDS011;17164;48.590;11.410;2023-05-29T00:47:00;8.87;;;4.40;;
30370;SDS011;17164;48.590;11.410;2023-05-29T00:49:26;12.13;;;5.03;;
30370;SDS011;17164;48.590;11.410;2023-05-29T00:51:52;6.93;;;4.10;;
30370;SDS011;17164;48.590;11.410;2023-05-29T00:54:21;8.10;;;4.33;;
30370;SDS011;17164;48.590;11.410;2023-05-29T00:56:51;8.87;;;4.60;;
30370;SDS011;17164;48.590;11.410;2023-05-29T00:59:17;8.70;;;4.00;;
30370;SDS011;17164;48.590;11.410;2023-05-29T01:01:46;10.83;;;5.03;;
30370;SDS011;17164;48.590;11.410;2023-05-29T01:04:13;7.97;;;4.93;;
30370;SDS011;17164;48.590;11.410;2023-05-29T01:06:40;6.57;;;4.20;;
30370;SDS011;17164;48.590;11.410;2023-05-29T01:09:06;8.30;;;4.70;;
30370;SDS011;17164;48.590;11.410;2023-05-29T01:14:31;8.13;;;4.77;;
30370;SDS011;17164;48.590;11.410;2023-05-29T01:18:00;8.90;;;4.40;;
30370;SDS011;17164;48.590;11.410;2023-05-29T01:25:46;9.07;;;4.37;;
30370;SDS011;17164;48.590;11.410;2023-05-29T01:28:24;8.37;;;4.43;;
30370;SDS011;17164;48.590;11.410;2023-05-29T01:30:52;8.60;;;4.70;;
30370;SDS011;17164;48.590;11.410;2023-05-29T01:33:21;9.23;;;4.47;;
30370;SDS011;17164;48.590;11.410;2023-05-29T01:35:47;11.27;;;4.90;;
30370;SDS011;17164;48.590;11.410;2023-05-29T01:38:13;8.20;;;4.27;;
30370;SDS011;17164;48.590;11.410;2023-05-29T01:40:38;7.90;;;4.97;;
30370;SDS011;17164;48.590;11.410;2023-05-29T01:43:04;10.30;;;4.90;;
30370;SDS011;17164;48.590;11.410;2023-05-29T01:45:31;9.83;;;4.53;;
30370;SDS011;17164;48.590;11.410;2023-05-29T01:47:57;8.50;;;3.97;;
30370;SDS011;17164;48.590;11.410;2023-05-29T01:50:22;9.90;;;4.50;;
30370;SDS011;17164;48.590;11.410;2023-05-29T01:52:49;7.37;;;4.17;;
30370;SDS011;17164;48.590;11.410;2023-05-29T01:55:15;7.00;;;4.00;;
30370;SDS011;17164;48.590;11.410;2023-05-29T01:57:40;9.73;;;4.43;;
30370;SDS011;17164;48.590;11.410;2023-05-29T02:00:07;8.70;;;4.63;;
30370;SDS011;17164;48.590;11.410;2023-05-29T02:02:37;9.23;;;4.30;;
30370;SDS011;17164;48.590;11.410;2023-05-29T02:05:04;7.73;;;4.63;;
30370;SDS011;17164;48.590;11.410;2023-05-29T02:07:30;9.33;;;4.40;;
30370;SDS011;17164;48.590;11.410;2023-05-29T02:09:56;7.43;;;4.37;;
30370;SDS011;17164;48.590;11.410;2023-05-29T02:12:21;9.37;;;4.43;;
30370;SDS011;17164;48.590;11.410;2023-05-29T02:14:47;7.70;;;4.33;;
30370;SDS011;17164;48.590;11.410;2023-05-29T02:17:13;8.57;;;4.40;;
30370;SDS011;17164;48.590;11.410;2023-05-29T02:19:39;9.10;;;4.70;;
30370;SDS011;17164;48.590;11.410;2023-05-29T02:22:05;11.00;;;5.90;;
30370;SDS011;17164;48.590;11.410;2023-05-29T02:24:31;9.27;;;4.70;;
30370;SDS011;17164;48.590;11.410;2023-05-29T02:26:57;9.23;;;4.60;;
30370;SDS011;17164;48.590;11.410;2023-05-29T02:29:23;10.00;;;5.10;;
30370;SDS011;17164;48.590;11.410;2023-05-29T02:31:48;9.90;;;4.67;;
30370;SDS011;17164;48.590;11.410;2023-05-29T02:34:14;7.77;;;4.20;;
30370;SDS011;17164;48.590;11.410;2023-05-29T02:36:40;9.77;;;5.03;;
30370;SDS011;17164;48.590;11.410;2023-05-29T02:39:05;9.03;;;5.10;;
30370;SDS011;17164;48.590;11.410;2023-05-29T02:41:31;9.60;;;5.20;;
30370;SDS011;17164;48.590;11.410;2023-05-29T02:43:57;7.17;;;4.50;;
30370;SDS011;17164;48.590;11.410;2023-05-29T02:46:22;10.80;;;4.70;;
30370;SDS011;17164;48.590;11.410;2023-05-29T02:48:48;7.97;;;4.60;;
30370;SDS011;17164;48.590;11.410;2023-05-29T02:51:13;9.90;;;4.77;;
30370;SDS011;17164;48.590;11.410;2023-05-29T02:53:39;10.63;;;5.25;;
30370;SDS011;17164;48.590;11.410;2023-05-29T02:56:05;8.83;;;5.17;;
30370;SDS011;17164;48.590;11.410;2023-05-29T02:58:33;9.53;;;4.97;;
30370;SDS011;17164;48.590;11.410;2023-05-29T03:01:00;8.63;;;4.40;;
30370;SDS011;17164;48.590;11.410;2023-05-29T03:03:27;8.53;;;4.60;;
30370;SDS011;17164;48.590;11.410;2023-05-29T03:05:53;9.07;;;4.80;;
30370;SDS011;17164;48.590;11.410;2023-05-29T03:08:18;11.07;;;4.70;;
30370;SDS011;17164;48.590;11.410;2023-05-29T03:10:44;9.33;;;5.17;;
30370;SDS011;17164;48.590;11.410;2023-05-29T03:13:10;7.53;;;4.27;;
30370;SDS011;17164;48.590;11.410;2023-05-29T03:15:35;8.00;;;4.47;;
30370;SDS011;17164;48.590;11.410;2023-05-29T03:18:01;8.87;;;4.73;;
30370;SDS011;17164;48.590;11.410;2023-05-29T03:20:26;11.50;;;5.00;;
30370;SDS011;17164;48.590;11.410;2023-05-29T03:22:53;9.07;;;5.17;;
30370;SDS011;17164;48.590;11.410;2023-05-29T03:25:19;10.17;;;5.70;;
30370;SDS011;17164;48.590;11.410;2023-05-29T03:27:46;10.00;;;4.90;;
30370;SDS011;17164;48.590;11.410;2023-05-29T03:30:12;10.27;;;5.03;;
30370;SDS011;17164;48.590;11.410;2023-05-29T03:32:38;9.03;;;4.90;;
30370;SDS011;17164;48.590;11.410;2023-05-29T03:35:04;11.57;;;5.40;;
30370;SDS011;17164;48.590;11.410;2023-05-29T03:37:30;11.20;;;5.00;;
30370;SDS011;17164;48.590;11.410;2023-05-29T03:39:55;8.43;;;5.00;;
30370;SDS011;17164;48.590;11.410;2023-05-29T03:42:21;7.53;;;4.50;;
30370;SDS011;17164;48.590;11.410;2023-05-29T03:44:46;8.03;;;4.70;;
30370;SDS011;17164;48.590;11.410;2023-05-29T03:47:12;14.93;;;5.40;;
30370;SDS011;17164;48.590;11.410;2023-05-29T03:49:37;6.13;;;4.27;;
30370;SDS011;17164;48.590;11.410;2023-05-29T03:52:03;7.97;;;4.63;;
30370;SDS011;17164;48.590;11.410;2023-05-29T03:54:29;7.90;;;4.60;;
30370;SDS011;17164;48.590;11.410;2023-05-29T03:56:55;11.60;;;5.33;;
30370;SDS011;17164;48.590;11.410;2023-05-29T03:59:20;8.53;;;5.10;;
30370;SDS011;17164;48.590;11.410;2023-05-29T04:01:46;10.43;;;4.70;;
30370;SDS011;17164;48.590;11.410;2023-05-29T04:04:11;10.43;;;5.67;;
30370;SDS011;17164;48.590;11.410;2023-05-29T04:06:37;8.53;;;4.77;;
30370;SDS011;17164;48.590;11.410;2023-05-29T04:09:04;9.67;;;4.93;;
30370;SDS011;17164;48.590;11.410;2023-05-29T04:11:31;8.77;;;5.37;;
30370;SDS011;17164;48.590;11.410;2023-05-29T04:13:59;9.17;;;5.10;;
30370;SDS011;17164;48.590;11.410;2023-05-29T04:16:25;9.27;;;5.00;;
30370;SDS011;17164;48.590;11.410;2023-05-29T04:18:51;11.47;;;5.07;;
30370;SDS011;17164;48.590;11.410;2023-05-29T04:21:17;8.33;;;5.03;;
30370;SDS011;17164;48.590;11.410;2023-05-29T04:23:42;10.83;;;5.07;;
30370;SDS011;17164;48.590;11.410;2023-05-29T04:26:08;13.37;;;5.47;;
30370;SDS011;17164;48.590;11.410;2023-05-29T04:28:35;10.93;;;5.37;;
30370;SDS011;17164;48.590;11.410;2023-05-29T04:31:02;11.43;;;5.20;;
30370;SDS011;17164;48.590;11.410;2023-05-29T04:33:28;11.03;;;5.00;;
30370;SDS011;17164;48.590;11.410;2023-05-29T04:35:54;9.90;;;5.03;;
30370;SDS011;17164;48.590;11.410;2023-05-29T04:38:20;9.33;;;4.97;;
30370;SDS011;17164;48.590;11.410;2023-05-29T04:40:50;10.23;;;5.73;;
30370;SDS011;17164;48.590;11.410;2023-05-29T04:43:16;9.60;;;5.47;;
30370;SDS011;17164;48.590;11.410;2023-05-29T04:45:42;15.90;;;5.13;;
30370;SDS011;17164;48.590;11.410;2023-05-29T04:48:07;10.03;;;4.97;;
30370;SDS011;17164;48.590;11.410;2023-05-29T04:50:33;9.50;;;5.13;;
30370;SDS011;17164;48.590;11.410;2023-05-29T04:53:00;8.27;;;5.00;;
30370;SDS011;17164;48.590;11.410;2023-05-29T04:55:26;8.73;;;4.63;;
30370;SDS011;17164;48.590;11.410;2023-05-29T04:57:52;9.00;;;4.93;;
30370;SDS011;17164;48.590;11.410;2023-05-29T05:00:18;8.23;;;4.47;;
30370;SDS011;17164;48.590;11.410;2023-05-29T05:02:44;10.67;;;5.37;;
30370;SDS011;17164;48.590;11.410;2023-05-29T05:05:10;11.30;;;5.10;;
30370;SDS011;17164;48.590;11.410;2023-05-29T05:07:37;8.57;;;4.57;;
30370;SDS011;17164;48.590;11.410;2023-05-29T05:10:03;7.43;;;4.70;;
30370;SDS011;17164;48.590;11.410;2023-05-29T05:12:29;12.10;;;5.23;;
30370;SDS011;17164;48.590;11.410;2023-05-29T05:14:55;8.63;;;4.97;;
30370;SDS011;17164;48.590;11.410;2023-05-29T05:17:21;9.80;;;4.90;;
30370;SDS011;17164;48.590;11.410;2023-05-29T05:19:47;7.73;;;4.70;;
30370;SDS011;17164;48.590;11.410;2023-05-29T05:22:14;8.67;;;5.10;;
30370;SDS011;17164;48.590;11.410;2023-05-29T05:24:40;9.37;;;4.93;;
30370;SDS011;17164;48.590;11.410;2023-05-29T05:27:05;14.83;;;4.53;;
30370;SDS011;17164;48.590;11.410;2023-05-29T05:29:31;7.30;;;4.20;;
30370;SDS011;17164;48.590;11.410;2023-05-29T05:31:57;8.87;;;4.07;;
30370;SDS011;17164;48.590;11.410;2023-05-29T05:34:22;9.00;;;4.80;;
30370;SDS011;17164;48.590;11.410;2023-05-29T05:36:48;8.63;;;4.07;;
30370;SDS011;17164;48.590;11.410;2023-05-29T05:39:14;7.63;;;4.40;;
30370;SDS011;17164;48.590;11.410;2023-05-29T05:41:40;8.60;;;4.53;;
30370;SDS011;17164;48.590;11.410;2023-05-29T05:44:05;9.83;;;4.17;;
30370;SDS011;17164;48.590;11.410;2023-05-29T05:46:31;11.47;;;4.10;;
30370;SDS011;17164;48.590;11.410;2023-05-29T05:48:56;7.47;;;3.87;;
30370;SDS011;17164;48.590;11.410;2023-05-29T05:51:22;9.53;;;4.27;;
30370;SDS011;17164;48.590;11.410;2023-05-29T05:53:49;8.57;;;3.97;;
30370;SDS011;17164;48.590;11.410;2023-05-29T05:56:14;7.73;;;3.90;;
30370;SDS011;17164;48.590;11.410;2023-05-29T05:58:40;6.40;;;3.33;;
30370;SDS011;17164;48.590;11.410;2023-05-29T06:01:07;9.50;;;4.43;;
30370;SDS011;17164;48.590;11.410;2023-05-29T06:03:33;6.67;;;3.60;;
30370;SDS011;17164;48.590;11.410;2023-05-29T06:05:59;6.73;;;3.50;;
30370;SDS011;17164;48.590;11.410;2023-05-29T06:08:25;6.80;;;3.80;;
30370;SDS011;17164;48.590;11.410;2023-05-29T06:10:51;8.23;;;3.80;;
30370;SDS011;17164;48.590;11.410;2023-05-29T06:13:17;6.77;;;3.90;;
30370;SDS011;17164;48.590;11.410;2023-05-29T06:15:43;6.70;;;3.63;;
30370;SDS011;17164;48.590;11.410;2023-05-29T06:18:08;5.73;;;3.23;;
30370;SDS011;17164;48.590;11.410;2023-05-29T06:20:34;8.33;;;4.00;;
30370;SDS011;17164;48.590;11.410;2023-05-29T06:23:00;9.30;;;3.57;;
30370;SDS011;17164;48.590;11.410;2023-05-29T06:25:25;8.57;;;4.03;;
30370;SDS011;17164;48.590;11.410;2023-05-29T06:28:01;5.50;;;3.10;;
30370;SDS011;17164;48.590;11.410;2023-05-29T06:30:28;9.73;;;3.90;;
30370;SDS011;17164;48.590;11.410;2023-05-29T06:32:54;8.30;;;3.40;;
30370;SDS011;17164;48.590;11.410;2023-05-29T06:35:19;7.40;;;3.70;;
30370;SDS011;17164;48.590;11.410;2023-05-29T06:37:45;7.87;;;3.20;;
30370;SDS011;17164;48.590;11.410;2023-05-29T06:40:12;6.10;;;3.30;;
30370;SDS011;17164;48.590;11.410;2023-05-29T06:42:38;6.73;;;2.90;;
30370;SDS011;17164;48.590;11.410;2023-05-29T06:45:04;9.57;;;3.80;;
30370;SDS011;17164;48.590;11.410;2023-05-29T06:47:30;8.93;;;3.40;;
30370;SDS011;17164;48.590;11.410;2023-05-29T06:49:56;10.57;;;3.70;;
30370;SDS011;17164;48.590;11.410;2023-05-29T06:52:22;10.67;;;3.70;;
30370;SDS011;17164;48.590;11.410;2023-05-29T06:54:47;6.67;;;3.27;;
30370;SDS011;17164;48.590;11.410;2023-05-29T06:57:13;7.37;;;3.27;;
30370;SDS011;17164;48.590;11.410;2023-05-29T06:59:38;7.50;;;3.27;;
30370;SDS011;17164;48.590;11.410;2023-05-29T07:02:04;6.97;;;3.07;;
30370;SDS011;17164;48.590;11.410;2023-05-29T07:04:30;8.97;;;3.27;;
30370;SDS011;17164;48.590;11.410;2023-05-29T07:06:56;5.33;;;3.13;;
30370;SDS011;17164;48.590;11.410;2023-05-29T07:09:22;6.13;;;3.20;;
30370;SDS011;17164;48.590;11.410;2023-05-29T07:11:47;5.83;;;2.87;;
30370;SDS011;17164;48.590;11.410;2023-05-29T07:14:13;8.03;;;2.97;;
30370;SDS011;17164;48.590;11.410;2023-05-29T07:16:39;5.93;;;3.00;;
30370;SDS011;17164;48.590;11.410;2023-05-29T07:19:04;5.27;;;3.20;;
30370;SDS011;17164;48.590;11.410;2023-05-29T07:21:30;9.90;;;3.07;;
30370;SDS011;17164;48.590;11.410;2023-05-29T07:23:56;7.77;;;3.37;;
30370;SDS011;17164;48.590;11.410;2023-05-29T07:26:22;7.50;;;3.07;;
30370;SDS011;17164;48.590;11.410;2023-05-29T07:28:48;5.43;;;2.83;;
30370;SDS011;17164;48.590;11.410;2023-05-29T07:31:14;8.30;;;3.23;;
30370;SDS011;17164;48.590;11.410;2023-05-29T07:33:40;11.27;;;3.07;;
30370;SDS011;17164;48.590;11.410;2023-05-29T07:36:06;8.87;;;2.80;;
30370;SDS011;17164;48.590;11.410;2023-05-29T07:38:32;6.30;;;2.87;;
30370;SDS011;17164;48.590;11.410;2023-05-29T07:40:58;6.30;;;3.23;;
30370;SDS011;17164;48.590;11.410;2023-05-29T07:43:24;8.80;;;3.10;;
30370;SDS011;17164;48.590;11.410;2023-05-29T07:45:49;6.47;;;3.10;;
30370;SDS011;17164;48.590;11.410;2023-05-29T07:48:15;6.97;;;3.10;;
30370;SDS011;17164;48.590;11.410;2023-05-29T07:50:40;6.10;;;2.83;;
30370;SDS011;17164;48.590;11.410;2023-05-29T07:53:06;5.97;;;2.90;;
30370;SDS011;17164;48.590;11.410;2023-05-29T07:55:33;7.17;;;2.73;;
30370;SDS011;17164;48.590;11.410;2023-05-29T07:58:00;9.23;;;3.27;;
30370;SDS011;17164;48.590;11.410;2023-05-29T08:00:26;7.90;;;2.73;;
30370;SDS011;17164;48.590;11.410;2023-05-29T08:02:53;7.63;;;2.93;;
30370;SDS011;17164;48.590;11.410;2023-05-29T08:05:19;8.40;;;2.90;;
30370;SDS011;17164;48.590;11.410;2023-05-29T08:07:45;8.80;;;2.70;;
30370;SDS011;17164;48.590;11.410;2023-05-29T08:10:13;5.13;;;3.10;;
30370;SDS011;17164;48.590;11.410;2023-05-29T08:12:38;14.50;;;3.00;;
30370;SDS011;17164;48.590;11.410;2023-05-29T08:15:04;11.63;;;2.50;;
30370;SDS011;17164;48.590;11.410;2023-05-29T08:17:30;5.23;;;2.80;;
30370;SDS011;17164;48.590;11.410;2023-05-29T08:19:56;5.63;;;3.10;;
30370;SDS011;17164;48.590;11.410;2023-05-29T08:22:27;7.13;;;2.80;;
30370;SDS011;17164;48.590;11.410;2023-05-29T08:24:53;5.77;;;2.87;;
30370;SDS011;17164;48.590;11.410;2023-05-29T08:27:19;6.37;;;3.20;;
30370;SDS011;17164;48.590;11.410;2023-05-29T08:29:45;7.37;;;2.40;;
30370;SDS011;17164;48.590;11.410;2023-05-29T08:32:10;5.03;;;2.50;;
30370;SDS011;17164;48.590;11.410;2023-05-29T08:34:36;6.20;;;2.57;;
30370;SDS011;17164;48.590;11.410;2023-05-29T08:37:02;5.60;;;2.90;;
30370;SDS011;17164;48.590;11.410;2023-05-29T08:39:27;9.10;;;3.23;;
30370;SDS011;17164;48.590;11.410;2023-05-29T08:42:01;6.23;;;3.17;;
30370;SDS011;17164;48.590;11.410;2023-05-29T08:44:32;6.43;;;2.93;;
30370;SDS011;17164;48.590;11.410;2023-05-29T08:47:03;7.80;;;3.53;;
30370;SDS011;17164;48.590;11.410;2023-05-29T08:49:34;7.33;;;3.20;;
30370;SDS011;17164;48.590;11.410;2023-05-29T08:52:15;7.00;;;2.60;;
30370;SDS011;17164;48.590;11.410;2023-05-29T08:54:43;7.70;;;3.63;;
30370;SDS011;17164;48.590;11.410;2023-05-29T08:57:10;6.17;;;3.03;;
30370;SDS011;17164;48.590;11.410;2023-05-29T08:59:37;8.07;;;3.20;;
30370;SDS011;17164;48.590;11.410;2023-05-29T09:02:06;6.73;;;3.10;;
30370;SDS011;17164;48.590;11.410;2023-05-29T09:04:32;5.10;;;2.73;;
30370;SDS011;17164;48.590;11.410;2023-05-29T09:06:59;5.77;;;2.97;;
30370;SDS011;17164;48.590;11.410;2023-05-29T09:09:27;6.07;;;2.80;;
30370;SDS011;17164;48.590;11.410;2023-05-29T09:11:54;6.63;;;3.00;;
30370;SDS011;17164;48.590;11.410;2023-05-29T09:14:37;5.87;;;2.73;;
30370;SDS011;17164;48.590;11.410;2023-05-29T09:17:04;6.47;;;2.73;;
30370;SDS011;17164;48.590;11.410;2023-05-29T09:19:32;8.27;;;2.93;;
30370;SDS011;17164;48.590;11.410;2023-05-29T09:22:08;8.63;;;3.37;;
30370;SDS011;17164;48.590;11.410;2023-05-29T09:24:40;6.43;;;3.23;;
30370;SDS011;17164;48.590;11.410;2023-05-29T09:27:10;6.93;;;3.00;;
30370;SDS011;17164;48.590;11.410;2023-05-29T09:29:40;6.53;;;2.90;;
30370;SDS011;17164;48.590;11.410;2023-05-29T09:32:10;6.90;;;3.13;;
30370;SDS011;17164;48.590;11.410;2023-05-29T09:34:37;5.17;;;2.50;;
30370;SDS011;17164;48.590;11.410;2023-05-29T09:37:05;6.23;;;2.83;;
30370;SDS011;17164;48.590;11.410;2023-05-29T09:42:07;6.90;;;2.73;;
30370;SDS011;17164;48.590;11.410;2023-05-29T09:44:34;9.10;;;3.60;;
30370;SDS011;17164;48.590;11.410;2023-05-29T09:47:00;5.90;;;2.90;;
30370;SDS011;17164;48.590;11.410;2023-05-29T09:49:25;5.53;;;3.03;;
30370;SDS011;17164;48.590;11.410;2023-05-29T09:51:54;7.80;;;3.47;;
30370;SDS011;17164;48.590;11.410;2023-05-29T09:54:21;6.43;;;3.47;;
30370;SDS011;17164;48.590;11.410;2023-05-29T09:56:47;7.30;;;3.27;;
30370;SDS011;17164;48.590;11.410;2023-05-29T09:59:14;6.70;;;3.33;;
30370;SDS011;17164;48.590;11.410;2023-05-29T10:01:41;6.13;;;2.90;;
30370;SDS011;17164;48.590;11.410;2023-05-29T10:04:09;7.50;;;2.90;;
30370;SDS011;17164;48.590;11.410;2023-05-29T10:06:36;14.37;;;3.50;;
30370;SDS011;17164;48.590;11.410;2023-05-29T10:09:06;9.07;;;2.90;;
30370;SDS011;17164;48.590;11.410;2023-05-29T10:11:35;9.97;;;3.53;;
30370;SDS011;17164;48.590;11.410;2023-05-29T10:14:02;7.20;;;3.07;;
30370;SDS011;17164;48.590;11.410;2023-05-29T10:16:30;5.90;;;2.90;;
30370;SDS011;17164;48.590;11.410;2023-05-29T10:19:01;8.47;;;2.93;;
30370;SDS011;17164;48.590;11.410;2023-05-29T10:21:32;7.10;;;3.60;;
30370;SDS011;17164;48.590;11.410;2023-05-29T10:24:02;6.13;;;2.90;;
30370;SDS011;17164;48.590;11.410;2023-05-29T10:26:31;4.73;;;2.90;;
30370;SDS011;17164;48.590;11.410;2023-05-29T10:32:01;4.87;;;2.53;;
30370;SDS011;17164;48.590;11.410;2023-05-29T10:40:04;6.50;;;3.07;;
30370;SDS011;17164;48.590;11.410;2023-05-29T10:42:47;4.83;;;2.60;;
30370;SDS011;17164;48.590;11.410;2023-05-29T10:45:59;8.17;;;3.50;;
30370;SDS011;17164;48.590;11.410;2023-05-29T10:50:36;5.20;;;2.67;;
30370;SDS011;17164;48.590;11.410;2023-05-29T10:53:03;8.67;;;3.03;;
30370;SDS011;17164;48.590;11.410;2023-05-29T10:55:34;5.13;;;2.70;;
30370;SDS011;17164;48.590;11.410;2023-05-29T10:58:06;5.60;;;3.17;;
30370;SDS011;17164;48.590;11.410;2023-05-29T11:00:33;6.87;;;2.80;;
30370;SDS011;17164;48.590;11.410;2023-05-29T11:03:02;8.57;;;2.93;;
30370;SDS011;17164;48.590;11.410;2023-05-29T11:05:29;5.83;;;2.93;;
30370;SDS011;17164;48.590;11.410;2023-05-29T11:07:58;6.77;;;3.00;;
30370;SDS011;17164;48.590;11.410;2023-05-29T11:13:32;5.30;;;3.00;;
30370;SDS011;17164;48.590;11.410;2023-05-29T11:16:19;7.20;;;3.10;;
30370;SDS011;17164;48.590;11.410;2023-05-29T11:18:54;4.87;;;3.07;;
30370;SDS011;17164;48.590;11.410;2023-05-29T11:23:54;4.53;;;3.00;;
30370;SDS011;17164;48.590;11.410;2023-05-29T11:26:23;5.37;;;2.97;;
30370;SDS011;17164;48.590;11.410;2023-05-29T11:28:53;6.23;;;3.07;;
30370;SDS011;17164;48.590;11.410;2023-05-29T11:31:22;7.27;;;2.80;;
30370;SDS011;17164;48.590;11.410;2023-05-29T11:33:49;6.17;;;3.17;;
30370;SDS011;17164;48.590;11.410;2023-05-29T11:36:17;7.77;;;3.30;;
30370;SDS011;17164;48.590;11.410;2023-05-29T11:38:44;6.63;;;2.80;;
30370;SDS011;17164;48.590;11.410;2023-05-29T11:41:10;6.03;;;3.03;;
30370;SDS011;17164;48.590;11.410;2023-05-29T11:43:36;6.30;;;2.90;;
30370;SDS011;17164;48.590;11.410;2023-05-29T11:46:02;5.23;;;2.90;;
30370;SDS011;17164;48.590;11.410;2023-05-29T11:48:27;6.37;;;2.40;;
30370;SDS011;17164;48.590;11.410;2023-05-29T11:50:53;7.23;;;3.10;;
30370;SDS011;17164;48.590;11.410;2023-05-29T11:53:19;9.00;;;2.70;;
30370;SDS011;17164;48.590;11.410;2023-05-29T11:55:44;4.50;;;2.40;;
30370;SDS011;17164;48.590;11.410;2023-05-29T11:58:10;7.53;;;2.60;;
30370;SDS011;17164;48.590;11.410;2023-05-29T12:00:37;6.37;;;2.90;;
30370;SDS011;17164;48.590;11.410;2023-05-29T12:03:03;4.03;;;2.50;;
30370;SDS011;17164;48.590;11.410;2023-05-29T12:05:46;4.20;;;1.97;;
30370;SDS011;17164;48.590;11.410;2023-05-29T12:08:23;6.33;;;2.70;;
30370;SDS011;17164;48.590;11.410;2023-05-29T12:10:50;6.33;;;2.90;;
30370;SDS011;17164;48.590;11.410;2023-05-29T12:13:20;5.67;;;2.83;;
30370;SDS011;17164;48.590;11.410;2023-05-29T12:15:47;4.43;;;2.60;;
30370;SDS011;17164;48.590;11.410;2023-05-29T12:18:14;5.23;;;2.87;;
30370;SDS011;17164;48.590;11.410;2023-05-29T12:20:40;7.37;;;2.77;;
30370;SDS011;17164;48.590;11.410;2023-05-29T12:23:06;5.10;;;2.87;;
30370;SDS011;17164;48.590;11.410;2023-05-29T12:25:33;5.83;;;2.63;;
30370;SDS011;17164;48.590;11.410;2023-05-29T12:28:02;4.57;;;2.57;;
30370;SDS011;17164;48.590;11.410;2023-05-29T12:30:27;5.33;;;2.90;;
30370;SDS011;17164;48.590;11.410;2023-05-29T12:32:53;6.50;;;2.67;;
30370;SDS011;17164;48.590;11.410;2023-05-29T12:35:22;4.97;;;2.20;;
30370;SDS011;17164;48.590;11.410;2023-05-29T12:40:26;4.93;;;2.70;;
30370;SDS011;17164;48.590;11.410;2023-05-29T12:42:56;6.30;;;2.33;;
30370;SDS011;17164;48.590;11.410;2023-05-29T12:45:24;4.80;;;2.50;;
30370;SDS011;17164;48.590;11.410;2023-05-29T12:47:54;7.07;;;2.57;;
30370;SDS011;17164;48.590;11.410;2023-05-29T12:50:25;5.13;;;2.47;;
30370;SDS011;17164;48.590;11.410;2023-05-29T12:53:02;4.43;;;2.20;;
30370;SDS011;17164;48.590;11.410;2023-05-29T12:55:29;4.30;;;2.53;;
30370;SDS011;17164;48.590;11.410;2023-05-29T12:58:02;8.97;;;2.50;;
30370;SDS011;17164;48.590;11.410;2023-05-29T13:00:28;7.27;;;2.73;;
30370;SDS011;17164;48.590;11.410;2023-05-29T13:02:54;5.50;;;2.60;;
30370;SDS011;17164;48.590;11.410;2023-05-29T13:05:19;4.27;;;2.30;;
30370;SDS011;17164;48.590;11.410;2023-05-29T13:07:48;7.13;;;2.70;;
30370;SDS011;17164;48.590;11.410;2023-05-29T13:10:14;7.10;;;2.23;;
30370;SDS011;17164;48.590;11.410;2023-05-29T13:12:41;6.20;;;2.40;;
30370;SDS011;17164;48.590;11.410;2023-05-29T13:15:07;4.07;;;2.37;;
30370;SDS011;17164;48.590;11.410;2023-05-29T13:17:34;6.27;;;2.70;;
30370;SDS011;17164;48.590;11.410;2023-05-29T13:20:00;2.93;;;1.93;;
30370;SDS011;17164;48.590;11.410;2023-05-29T13:22:26;5.03;;;2.27;;
30370;SDS011;17164;48.590;11.410;2023-05-29T13:24:56;3.07;;;1.80;;
30370;SDS011;17164;48.590;11.410;2023-05-29T13:27:23;5.23;;;2.50;;
30370;SDS011;17164;48.590;11.410;2023-05-29T13:29:49;4.93;;;2.50;;
30370;SDS011;17164;48.590;11.410;2023-05-29T13:32:15;4.97;;;2.23;;
30370;SDS011;17164;48.590;11.410;2023-05-29T13:34:40;6.70;;;2.40;;
30370;SDS011;17164;48.590;11.410;2023-05-29T13:37:06;7.63;;;2.30;;
30370;SDS011;17164;48.590;11.410;2023-05-29T13:39:32;4.00;;;2.20;;
30370;SDS011;17164;48.590;11.410;2023-05-29T13:41:58;3.87;;;2.10;;
30370;SDS011;17164;48.590;11.410;2023-05-29T13:44:23;5.23;;;1.77;;
30370;SDS011;17164;48.590;11.410;2023-05-29T13:46:49;8.93;;;2.63;;
30370;SDS011;17164;48.590;11.410;2023-05-29T13:49:15;3.27;;;2.13;;
30370;SDS011;17164;48.590;11.410;2023-05-29T13:51:41;4.57;;;2.23;;
30370;SDS011;17164;48.590;11.410;2023-05-29T13:54:07;13.73;;;2.60;;
30370;SDS011;17164;48.590;11.410;2023-05-29T13:56:32;3.80;;;2.27;;
30370;SDS011;17164;48.590;11.410;2023-05-29T13:58:58;4.47;;;2.40;;
30370;SDS011;17164;48.590;11.410;2023-05-29T14:01:30;6.43;;;2.13;;
30370;SDS011;17164;48.590;11.410;2023-05-29T14:03:56;4.10;;;2.23;;
30370;SDS011;17164;48.590;11.410;2023-05-29T14:06:21;4.83;;;1.97;;
30370;SDS011;17164;48.590;11.410;2023-05-29T14:08:47;5.87;;;2.37;;
30370;SDS011;17164;48.590;11.410;2023-05-29T14:11:13;4.27;;;2.37;;
30370;SDS011;17164;48.590;11.410;2023-05-29T14:13:38;6.87;;;2.23;;
30370;SDS011;17164;48.590;11.410;2023-05-29T14:16:04;4.93;;;2.17;;
30370;SDS011;17164;48.590;11.410;2023-05-29T14:18:30;3.60;;;2.10;;
30370;SDS011;17164;48.590;11.410;2023-05-29T14:20:55;4.10;;;2.37;;
30370;SDS011;17164;48.590;11.410;2023-05-29T14:23:21;4.33;;;2.30;;
30370;SDS011;17164;48.590;11.410;2023-05-29T14:25:47;5.60;;;2.50;;
30370;SDS011;17164;48.590;11.410;2023-05-29T14:28:12;5.17;;;2.17;;
30370;SDS011;17164;48.590;11.410;2023-05-29T14:30:38;3.30;;;2.00;;
30370;SDS011;17164;48.590;11.410;2023-05-29T14:33:03;6.10;;;2.30;;
30370;SDS011;17164;48.590;11.410;2023-05-29T14:35:29;8.10;;;2.10;;
30370;SDS011;17164;48.590;11.410;2023-05-29T14:37:55;4.30;;;2.40;;
30370;SDS011;17164;48.590;11.410;2023-05-29T14:40:23;3.53;;;2.10;;
30370;SDS011;17164;48.590;11.410;2023-05-29T14:42:48;3.73;;;1.77;;
30370;SDS011;17164;48.590;11.410;2023-05-29T14:45:14;3.70;;;2.00;;
30370;SDS011;17164;48.590;11.410;2023-05-29T14:47:41;6.57;;;2.17;;
30370;SDS011;17164;48.590;11.410;2023-05-29T14:50:07;4.07;;;2.10;;
30370;SDS011;17164;48.590;11.410;2023-05-29T14:52:33;3.80;;;2.10;;
30370;SDS011;17164;48.590;11.410;2023-05-29T14:55:00;6.73;;;1.97;;
30370;SDS011;17164;48.590;11.410;2023-05-29T14:57:27;6.30;;;2.10;;
30370;SDS011;17164;48.590;11.410;2023-05-29T14:59:52;3.70;;;2.30;;
30370;SDS011;17164;48.590;11.410;2023-05-29T15:02:18;4.87;;;2.40;;